Time;durP1;ratioP1;P1;durP2;ratioP2;P2;SDS_P1;SDS_P2;PMS_P1;PMS_P2;Temp;Humidity;BMP_temperature;BMP_pressure;BME280_temperature;BME280_humidity;BME280_pressure;Samples;Min_cycle;Max_cycle;Signal;HPM_P1;HPM_P2
2023/05/21 00:01:38;;;;;;;4.72;3.95;;;14.80;99.90;;;;;;5154308;27;20469;-65
2023/05/21 00:04:06;;;;;;;6.20;4.38;;;14.80;99.90;;;;;;5153922;27;20535;-65
2023/05/21 00:06:34;;;;;;;6.10;3.88;;;14.80;99.90;;;;;;5135762;27;20052;-65
2023/05/21 00:09:02;;;;;;;6.43;4.15;;;14.80;99.90;;;;;;5154118;27;20047;-66
2023/05/21 00:11:28;;;;;;;6.40;4.85;;;14.80;99.90;;;;;;5154234;27;20114;-64
2023/05/21 00:13:53;;;;;;;5.18;4.03;;;14.80;99.90;;;;;;5153836;27;20539;-65
2023/05/21 00:16:19;;;;;;;4.47;3.90;;;14.70;99.90;;;;;;5154109;27;20082;-64
2023/05/21 00:18:46;;;;;;;6.35;4.57;;;14.80;99.90;;;;;;5154513;27;20062;-67
2023/05/21 00:21:12;;;;;;;4.25;3.30;;;14.80;99.90;;;;;;5154593;27;20039;-66
2023/05/21 00:23:40;;;;;;;7.25;4.30;;;14.80;99.90;;;;;;5154206;27;20039;-64
2023/05/21 00:26:05;;;;;;;8.23;4.25;;;14.70;99.90;;;;;;5135539;27;20043;-64
2023/05/21 00:28:31;;;;;;;5.13;3.97;;;14.70;99.90;;;;;;5136142;27;20053;-65
2023/05/21 00:30:56;;;;;;;7.18;4.70;;;14.70;99.90;;;;;;5154102;27;20066;-67
2023/05/21 00:33:25;;;;;;;6.90;3.95;;;14.70;99.90;;;;;;5153958;27;20072;-64
2023/05/21 00:35:51;;;;;;;6.35;4.85;;;14.70;99.90;;;;;;5153939;27;20058;-64
2023/05/21 00:38:17;;;;;;;4.78;3.95;;;14.60;99.90;;;;;;5136403;27;20379;-66
2023/05/21 00:40:43;;;;;;;4.68;4.18;;;14.70;99.90;;;;;;5156270;27;20046;-64
2023/05/21 00:43:09;;;;;;;6.15;3.95;;;14.60;99.90;;;;;;5158442;27;20103;-65
2023/05/21 00:45:36;;;;;;;7.13;4.68;;;14.60;99.90;;;;;;5139963;27;20059;-65
2023/05/21 00:48:05;;;;;;;4.30;3.90;;;14.60;99.90;;;;;;5157942;27;20047;-64
2023/05/21 00:50:31;;;;;;;5.43;4.90;;;14.60;99.90;;;;;;5158369;27;20047;-64
2023/05/21 00:52:58;;;;;;;5.07;4.25;;;14.60;99.90;;;;;;5157755;27;20088;-66
2023/05/21 00:55:24;;;;;;;4.50;4.07;;;14.60;99.90;;;;;;5157743;27;20050;-65
2023/05/21 00:57:50;;;;;;;6.30;4.35;;;14.60;99.90;;;;;;5157901;27;20049;-67
2023/05/21 01:00:16;;;;;;;6.47;4.53;;;14.50;99.90;;;;;;5140013;27;20351;-65
2023/05/21 01:02:43;;;;;;;6.78;4.63;;;14.50;99.90;;;;;;5157640;27;20046;-66
2023/05/21 01:05:09;;;;;;;8.15;4.70;;;14.50;99.90;;;;;;5158066;27;20429;-65
2023/05/21 01:07:38;;;;;;;7.20;4.63;;;14.50;99.90;;;;;;5157448;27;20042;-66
2023/05/21 01:10:06;;;;;;;5.50;4.95;;;14.50;99.90;;;;;;5157572;27;20042;-65
2023/05/21 01:12:33;;;;;;;6.32;4.80;;;14.50;99.90;;;;;;5157451;27;20042;-66
2023/05/21 01:15:03;;;;;;;5.90;5.35;;;14.50;99.90;;;;;;5139275;27;20059;-66
2023/05/21 01:17:30;;;;;;;5.85;4.45;;;14.50;99.90;;;;;;5157888;27;20074;-65
2023/05/21 01:19:57;;;;;;;11.10;5.25;;;14.40;99.90;;;;;;5157410;27;20061;-65
2023/05/21 01:22:23;;;;;;;6.60;4.60;;;14.40;99.90;;;;;;5139542;27;20419;-65
2023/05/21 01:24:50;;;;;;;7.85;5.88;;;14.40;99.90;;;;;;5157232;27;20471;-64
2023/05/21 01:27:16;;;;;;;8.15;4.97;;;14.40;99.90;;;;;;5157074;27;20050;-65
2023/05/21 01:29:41;;;;;;;6.32;4.82;;;14.40;99.90;;;;;;5157142;27;20051;-65
2023/05/21 01:32:37;;;;;;;6.22;5.13;;;14.40;99.90;;;;;;5157039;27;20051;-64
2023/05/21 01:35:15;;;;;;;5.05;4.40;;;14.30;99.90;;;;;;5138954;27;20474;-65
2023/05/21 01:37:57;;;;;;;6.88;5.03;;;14.30;99.90;;;;;;5157001;27;20498;-65
2023/05/21 01:40:34;;;;;;;7.05;5.65;;;14.40;99.90;;;;;;5157419;27;20123;-65
2023/05/21 01:43:02;;;;;;;6.13;5.50;;;14.30;99.90;;;;;;5139151;27;20039;-64
2023/05/21 01:45:30;;;;;;;5.53;4.43;;;14.30;99.90;;;;;;5156713;27;20049;-64
2023/05/21 01:47:57;;;;;;;5.45;4.93;;;14.20;99.90;;;;;;5157010;27;20379;-65
2023/05/21 01:50:24;;;;;;;5.45;4.95;;;14.20;99.90;;;;;;5156770;27;20054;-65
2023/05/21 01:52:57;;;;;;;5.30;4.70;;;14.10;99.90;;;;;;5121928;27;20086;-64
2023/05/21 01:55:23;;;;;;;5.65;5.13;;;14.10;99.90;;;;;;5138823;27;20039;-66
2023/05/21 01:57:53;;;;;;;6.00;5.50;;;14.00;99.90;;;;;;5156994;27;20477;-65
2023/05/21 02:00:24;;;;;;;6.30;5.25;;;13.90;99.90;;;;;;5157137;27;20050;-65
2023/05/21 02:02:50;;;;;;;6.22;5.55;;;14.00;99.90;;;;;;5156467;27;20050;-65
2023/05/21 02:05:16;;;;;;;5.90;5.30;;;13.90;99.90;;;;;;5156416;27;20035;-65
2023/05/21 02:07:44;;;;;;;9.15;6.07;;;13.80;99.90;;;;;;5156262;27;20122;-66
2023/05/21 02:10:10;;;;;;;6.47;5.55;;;13.90;99.90;;;;;;5156778;27;20125;-65
2023/05/21 02:12:36;;;;;;;8.63;5.75;;;13.90;99.90;;;;;;5137779;27;20111;-65
2023/05/21 02:15:02;;;;;;;6.90;5.65;;;13.90;99.90;;;;;;5156367;27;20108;-65
2023/05/21 02:17:32;;;;;;;8.30;6.00;;;14.00;99.90;;;;;;5138087;27;20125;-65
2023/05/21 02:20:10;;;;;;;6.88;5.35;;;14.00;99.90;;;;;;5156082;27;20038;-65
2023/05/21 02:22:43;;;;;;;6.57;5.47;;;14.00;99.90;;;;;;5156580;27;20062;-65
2023/05/21 02:25:09;;;;;;;7.40;5.72;;;14.00;99.90;;;;;;5156323;27;20064;-64
2023/05/21 02:27:36;;;;;;;6.97;6.28;;;14.00;99.90;;;;;;5155989;27;20082;-64
2023/05/21 02:30:04;;;;;;;6.05;5.45;;;14.00;99.90;;;;;;5155988;27;20094;-65
2023/05/21 02:32:33;;;;;;;7.43;5.72;;;14.00;99.90;;;;;;5155628;27;20062;-65
2023/05/21 02:35:00;;;;;;;8.93;6.30;;;14.00;99.90;;;;;;5156261;27;20039;-64
2023/05/21 02:37:27;;;;;;;6.13;5.53;;;14.00;99.90;;;;;;5156041;27;20051;-64
2023/05/21 02:39:55;;;;;;;6.18;5.57;;;14.00;99.90;;;;;;5156136;27;20041;-66
2023/05/21 02:42:22;;;;;;;6.95;5.65;;;14.00;99.90;;;;;;5137809;27;20047;-67
2023/05/21 02:44:49;;;;;;;8.75;6.90;;;14.00;99.90;;;;;;5155599;27;20046;-65
2023/05/21 02:47:15;;;;;;;7.72;5.65;;;13.90;99.90;;;;;;5155627;27;20058;-65
2023/05/21 02:49:41;;;;;;;6.00;5.25;;;13.90;99.90;;;;;;5155434;27;20043;-65
2023/05/21 02:52:07;;;;;;;7.43;6.03;;;13.90;99.90;;;;;;5155536;27;20096;-64
2023/05/21 02:54:32;;;;;;;8.73;6.07;;;13.90;99.90;;;;;;5156004;27;20038;-65
2023/05/21 02:56:58;;;;;;;7.68;6.22;;;13.90;99.90;;;;;;5155596;27;20042;-65
2023/05/21 02:59:24;;;;;;;9.25;5.15;;;13.90;99.90;;;;;;5155432;27;20042;-65
2023/05/21 03:01:49;;;;;;;8.18;6.05;;;14.00;99.90;;;;;;5155632;27;20522;-64
2023/05/21 03:04:20;;;;;;;11.48;5.95;;;13.90;99.90;;;;;;5154826;27;20483;-64
2023/05/21 03:06:47;;;;;;;6.65;5.72;;;13.90;99.90;;;;;;5155552;27;20058;-66
2023/05/21 03:09:13;;;;;;;5.93;5.40;;;13.90;99.90;;;;;;5137285;27;20047;-64
2023/05/21 03:11:38;;;;;;;9.00;6.20;;;13.90;99.90;;;;;;5137042;27;20063;-65
2023/05/21 03:14:05;;;;;;;7.93;5.75;;;13.90;99.90;;;;;;5155024;27;20062;-65
2023/05/21 03:16:33;;;;;;;8.32;5.38;;;13.90;99.90;;;;;;5136852;27;20103;-64
2023/05/21 03:18:59;;;;;;;6.15;5.45;;;13.80;99.90;;;;;;5155010;27;20047;-65
2023/05/21 03:21:28;;;;;;;9.23;6.45;;;13.80;99.90;;;;;;5155516;27;20051;-65
2023/05/21 03:23:57;;;;;;;8.82;6.38;;;13.80;99.90;;;;;;5154765;27;20034;-65
2023/05/21 03:26:26;;;;;;;9.27;6.25;;;13.80;99.90;;;;;;5136666;27;20061;-67
2023/05/21 03:28:55;;;;;;;7.57;6.00;;;13.80;99.90;;;;;;5136571;27;20054;-64
2023/05/21 03:31:24;;;;;;;10.25;6.47;;;13.80;99.90;;;;;;5154785;27;20103;-65
2023/05/21 03:33:51;;;;;;;6.45;5.68;;;13.70;99.90;;;;;;5154862;27;20091;-65
2023/05/21 03:36:17;;;;;;;9.35;6.03;;;13.70;99.90;;;;;;5136341;27;20047;-65
2023/05/21 03:38:43;;;;;;;7.78;6.07;;;13.70;99.90;;;;;;5155029;27;20475;-65
2023/05/21 03:41:09;;;;;;;10.82;6.22;;;13.70;99.90;;;;;;5154641;27;20035;-65
2023/05/21 03:43:35;;;;;;;8.18;6.18;;;13.70;99.90;;;;;;5154535;27;20137;-64
2023/05/21 03:46:01;;;;;;;7.50;6.45;;;13.70;99.90;;;;;;5154650;27;20043;-64
2023/05/21 03:48:27;;;;;;;6.75;5.72;;;13.70;99.90;;;;;;5136811;27;20043;-64
2023/05/21 03:50:53;;;;;;;7.88;6.03;;;13.70;99.90;;;;;;5136858;27;20061;-64
2023/05/21 03:53:18;;;;;;;10.30;6.85;;;13.70;99.90;;;;;;5136883;27;20091;-65
2023/05/21 03:55:44;;;;;;;10.27;5.90;;;13.70;99.90;;;;;;5154910;27;20050;-64
2023/05/21 03:58:10;;;;;;;9.20;6.55;;;13.70;99.90;;;;;;5154334;27;20043;-65
2023/05/21 04:00:36;;;;;;;10.30;7.18;;;13.60;99.90;;;;;;5154698;27;20046;-64
2023/05/21 04:03:02;;;;;;;8.98;5.97;;;13.60;99.90;;;;;;5136649;27;20086;-66
2023/05/21 04:05:28;;;;;;;7.90;6.40;;;13.70;99.90;;;;;;5118660;27;20038;-65
2023/05/21 04:07:54;;;;;;;10.15;6.43;;;13.70;99.90;;;;;;5135879;27;20163;-65
2023/05/21 04:10:20;;;;;;;11.90;6.38;;;13.70;99.90;;;;;;5135858;27;20094;-66
2023/05/21 04:12:48;;;;;;;7.93;6.07;;;13.70;99.90;;;;;;5154246;27;20118;-66
2023/05/21 04:15:17;;;;;;;8.00;6.53;;;13.70;99.90;;;;;;5155708;27;20107;-64
2023/05/21 04:17:44;;;;;;;8.40;6.32;;;13.70;99.90;;;;;;5158704;27;20049;-65
2023/05/21 04:20:12;;;;;;;8.35;6.40;;;13.80;99.90;;;;;;5159234;27;20054;-65
2023/05/21 04:22:38;;;;;;;9.00;6.65;;;13.80;99.90;;;;;;5158387;27;20047;-65
2023/05/21 04:25:04;;;;;;;9.02;6.30;;;13.80;99.90;;;;;;5158331;27;20043;-65
2023/05/21 04:27:30;;;;;;;10.63;6.88;;;13.80;99.90;;;;;;5159009;27;20039;-65
2023/05/21 04:29:56;;;;;;;10.65;6.35;;;13.80;99.90;;;;;;5157981;27;20471;-64
2023/05/21 04:32:23;;;;;;;11.13;6.65;;;13.80;99.90;;;;;;5140196;27;20050;-65
2023/05/21 04:34:48;;;;;;;8.07;5.90;;;13.90;99.90;;;;;;5158267;27;20039;-64
2023/05/21 04:37:16;;;;;;;7.45;5.82;;;13.90;99.90;;;;;;5158304;27;20486;-65
2023/05/21 04:39:43;;;;;;;8.50;6.47;;;13.80;99.90;;;;;;5140057;27;20050;-65
2023/05/21 04:42:09;;;;;;;7.25;6.32;;;13.80;99.90;;;;;;5158308;27;20149;-65
2023/05/21 04:44:37;;;;;;;12.38;6.03;;;13.80;99.90;;;;;;5139307;27;20084;-64
2023/05/21 04:47:03;;;;;;;8.27;5.72;;;13.80;99.90;;;;;;5158067;27;20151;-65
2023/05/21 04:49:28;;;;;;;8.68;6.50;;;13.80;99.90;;;;;;5157896;27;20555;-64
2023/05/21 04:51:55;;;;;;;8.18;6.18;;;13.80;99.90;;;;;;5157903;27;20042;-64
2023/05/21 04:54:21;;;;;;;10.85;5.30;;;13.80;99.90;;;;;;5158290;27;20050;-66
2023/05/21 04:56:47;;;;;;;8.63;6.05;;;13.90;99.90;;;;;;5157829;27;20042;-64
2023/05/21 04:59:13;;;;;;;9.65;5.32;;;13.90;99.90;;;;;;5158187;27;20039;-64
2023/05/21 05:01:39;;;;;;;10.25;6.28;;;14.10;99.90;;;;;;5139464;27;20038;-65
2023/05/21 05:04:05;;;;;;;12.13;6.05;;;14.10;99.90;;;;;;5139385;27;20068;-65
2023/05/21 05:06:31;;;;;;;8.35;5.55;;;14.10;99.90;;;;;;5157614;27;20476;-65
2023/05/21 05:08:57;;;;;;;9.07;5.72;;;14.10;99.90;;;;;;5139151;27;20093;-66
2023/05/21 05:11:23;;;;;;;11.48;5.55;;;14.20;99.90;;;;;;5157961;27;20070;-65
2023/05/21 05:13:48;;;;;;;7.63;5.70;;;14.30;99.90;;;;;;5157355;27;20087;-65
2023/05/21 05:16:17;;;;;;;9.80;6.20;;;14.20;99.90;;;;;;5138799;27;20121;-65
2023/05/21 05:18:43;;;;;;;11.48;5.13;;;14.20;99.90;;;;;;5157151;27;20112;-64
2023/05/21 05:21:08;;;;;;;6.15;4.97;;;14.30;99.90;;;;;;5138710;27;20127;-65
2023/05/21 05:23:34;;;;;;;7.28;5.65;;;14.30;99.90;;;;;;5156943;27;20050;-64
2023/05/21 05:26:00;;;;;;;8.10;5.20;;;14.40;99.90;;;;;;5156441;27;20057;-65
2023/05/21 05:28:25;;;;;;;6.38;5.20;;;14.40;99.90;;;;;;5156891;27;20058;-64
2023/05/21 05:30:51;;;;;;;7.53;5.25;;;14.50;99.90;;;;;;5156917;27;20054;-65
2023/05/21 05:33:17;;;;;;;8.23;5.57;;;14.40;99.90;;;;;;5156683;27;20074;-66
2023/05/21 05:35:42;;;;;;;6.40;5.18;;;14.40;99.90;;;;;;5138668;27;20093;-66
2023/05/21 05:38:08;;;;;;;12.02;6.07;;;14.40;99.90;;;;;;5157263;27;20045;-65
2023/05/21 05:40:34;;;;;;;5.53;4.90;;;14.50;99.90;;;;;;5138617;27;20345;-65
2023/05/21 05:43:00;;;;;;;9.38;5.47;;;14.50;99.90;;;;;;5156518;27;20047;-65
2023/05/21 05:45:25;;;;;;;11.07;4.82;;;14.50;99.90;;;;;;5156523;27;20058;-65
2023/05/21 05:47:51;;;;;;;7.82;5.22;;;14.50;99.90;;;;;;5137903;27;20050;-65
2023/05/21 05:50:17;;;;;;;9.85;4.68;;;14.60;99.90;;;;;;5156478;27;20134;-64
2023/05/21 05:52:43;;;;;;;7.07;4.57;;;14.60;99.90;;;;;;5156702;27;20039;-64
2023/05/21 05:55:10;;;;;;;6.20;4.72;;;14.60;99.90;;;;;;5138409;27;20054;-64
2023/05/21 05:57:36;;;;;;;7.57;4.97;;;14.70;99.90;;;;;;5156270;27;20082;-64
2023/05/21 06:00:03;;;;;;;7.78;5.05;;;14.70;99.90;;;;;;5156209;27;20043;-65
2023/05/21 06:02:29;;;;;;;6.70;4.90;;;14.80;99.90;;;;;;5156280;27;20050;-65
2023/05/21 06:04:54;;;;;;;6.32;4.95;;;14.80;99.90;;;;;;5155810;27;20043;-64
2023/05/21 06:07:20;;;;;;;7.07;4.97;;;14.90;99.90;;;;;;5120848;27;20067;-64
2023/05/21 06:09:46;;;;;;;7.63;4.70;;;15.30;99.90;;;;;;5156458;27;20456;-64
2023/05/21 06:12:14;;;;;;;5.97;4.53;;;14.90;99.90;;;;;;5138059;27;20086;-67
2023/05/21 06:14:41;;;;;;;5.53;4.85;;;15.00;99.90;;;;;;5138320;27;20125;-65
2023/05/21 06:17:06;;;;;;;7.18;4.82;;;15.00;99.90;;;;;;5156055;27;20047;-65
2023/05/21 06:19:32;;;;;;;7.75;5.43;;;15.00;99.90;;;;;;5156138;27;20521;-64
2023/05/21 06:21:58;;;;;;;8.30;5.28;;;15.00;99.90;;;;;;5155750;27;20042;-65
2023/05/21 06:24:24;;;;;;;8.02;4.28;;;15.20;99.90;;;;;;5155847;27;20042;-65
2023/05/21 06:26:50;;;;;;;6.20;4.65;;;15.30;99.90;;;;;;5155486;27;20083;-66
2023/05/21 06:29:16;;;;;;;7.15;4.82;;;15.50;99.90;;;;;;5155240;27;20043;-64
2023/05/21 06:31:42;;;;;;;8.07;5.32;;;15.80;99.90;;;;;;5137144;27;20054;-66
2023/05/21 06:34:09;;;;;;;5.90;4.78;;;16.00;99.90;;;;;;5155958;27;20043;-65
2023/05/21 06:36:35;;;;;;;10.45;5.15;;;15.90;99.90;;;;;;5155447;27;20046;-65
2023/05/21 06:39:02;;;;;;;9.48;5.10;;;15.90;99.90;;;;;;5154531;27;20038;-65
2023/05/21 06:41:27;;;;;;;7.75;4.65;;;15.90;99.90;;;;;;5155558;27;20053;-65
2023/05/21 06:43:53;;;;;;;9.93;5.00;;;15.80;99.90;;;;;;5137078;27;20043;-65
2023/05/21 06:46:19;;;;;;;5.38;4.38;;;15.70;99.90;;;;;;5156004;27;20069;-67
2023/05/21 06:48:45;;;;;;;8.60;4.53;;;15.70;99.90;;;;;;5155550;27;20363;-65
2023/05/21 06:51:11;;;;;;;8.02;4.70;;;15.70;99.90;;;;;;5155458;27;20054;-64
2023/05/21 06:53:37;;;;;;;6.50;4.32;;;15.70;99.90;;;;;;5155848;27;20042;-66
2023/05/21 06:56:03;;;;;;;8.18;4.97;;;15.70;99.90;;;;;;5120383;27;20054;-65
2023/05/21 06:58:30;;;;;;;6.40;4.93;;;15.70;99.90;;;;;;5155265;27;20171;-65
2023/05/21 07:01:00;;;;;;;7.32;4.50;;;15.70;99.90;;;;;;5155499;27;20051;-67
2023/05/21 07:03:26;;;;;;;9.05;4.90;;;15.60;99.90;;;;;;5136841;27;20616;-65
2023/05/21 07:05:52;;;;;;;6.18;4.43;;;15.70;99.90;;;;;;5155078;27;20098;-64
2023/05/21 07:08:18;;;;;;;6.88;4.50;;;15.70;99.90;;;;;;5155769;27;20121;-66
2023/05/21 07:10:45;;;;;;;8.77;5.00;;;15.80;99.90;;;;;;5136632;27;20127;-64
2023/05/21 07:13:11;;;;;;;7.97;4.90;;;15.80;99.90;;;;;;5136725;27;20042;-65
2023/05/21 07:15:37;;;;;;;5.93;4.72;;;15.90;99.90;;;;;;5136556;27;20043;-66
2023/05/21 07:18:03;;;;;;;9.20;5.50;;;15.90;99.90;;;;;;5155347;27;20047;-65
2023/05/21 07:20:28;;;;;;;12.75;6.05;;;15.80;99.90;;;;;;5154673;27;20102;-64
2023/05/21 07:22:54;;;;;;;7.10;4.88;;;15.80;99.90;;;;;;5155501;27;20046;-64
2023/05/21 07:25:21;;;;;;;8.52;5.05;;;16.00;99.90;;;;;;5154845;27;20042;-66
2023/05/21 07:27:47;;;;;;;6.18;4.40;;;16.10;99.90;;;;;;5137176;27;20051;-64
2023/05/21 07:30:13;;;;;;;8.02;5.40;;;16.30;99.90;;;;;;5154923;27;20069;-64
2023/05/21 07:32:39;;;;;;;6.32;4.45;;;16.20;99.90;;;;;;5155315;27;20053;-64
2023/05/21 07:35:05;;;;;;;6.38;4.63;;;16.40;99.90;;;;;;5154727;27;20511;-67
2023/05/21 07:37:31;;;;;;;6.45;4.32;;;16.40;99.90;;;;;;5136591;27;20049;-62
2023/05/21 07:39:57;;;;;;;4.78;4.30;;;16.40;99.90;;;;;;5154665;27;20146;-64
2023/05/21 07:42:24;;;;;;;6.88;5.00;;;16.40;99.90;;;;;;5154488;27;20046;-64
2023/05/21 07:44:49;;;;;;;6.07;4.35;;;16.50;99.90;;;;;;5154395;27;20042;-65
2023/05/21 07:47:15;;;;;;;7.70;4.55;;;16.20;99.90;;;;;;5154473;27;20280;-64
2023/05/21 07:49:41;;;;;;;6.28;4.35;;;16.20;99.90;;;;;;5136348;27;20043;-64
2023/05/21 07:52:06;;;;;;;8.82;4.50;;;16.40;99.90;;;;;;5136214;27;20050;-64
2023/05/21 07:54:32;;;;;;;6.25;3.88;;;16.60;99.90;;;;;;5136109;27;20050;-65
2023/05/21 07:56:58;;;;;;;9.07;4.68;;;16.70;99.90;;;;;;5154709;27;20042;-64
2023/05/21 07:59:24;;;;;;;7.75;4.90;;;17.00;99.90;;;;;;5154367;27;20039;-64
2023/05/21 08:01:50;;;;;;;7.65;4.32;;;17.00;99.90;;;;;;5154385;27;20050;-65
2023/05/21 08:04:16;;;;;;;7.13;4.70;;;17.00;99.90;;;;;;5135806;27;20046;-64
2023/05/21 08:06:41;;;;;;;9.27;4.85;;;16.90;99.90;;;;;;5135791;27;20053;-64
2023/05/21 08:09:07;;;;;;;6.78;5.07;;;17.00;99.90;;;;;;5154471;27;20134;-66
2023/05/21 08:11:33;;;;;;;7.63;4.53;;;17.00;99.90;;;;;;5154156;27;20039;-63
2023/05/21 08:13:59;;;;;;;5.38;4.40;;;17.00;99.90;;;;;;5153751;27;20069;-64
2023/05/21 08:16:24;;;;;;;6.35;4.70;;;17.20;99.90;;;;;;5136418;27;20047;-66
2023/05/21 08:18:50;;;;;;;7.00;4.97;;;17.40;99.90;;;;;;5154132;27;20482;-65
2023/05/21 08:21:16;;;;;;;5.53;4.45;;;17.30;99.90;;;;;;5154016;27;20417;-64
2023/05/21 08:23:42;;;;;;;10.45;5.07;;;17.40;99.90;;;;;;5154429;27;20053;-66
2023/05/21 08:26:08;;;;;;;6.28;4.40;;;17.50;99.90;;;;;;5135897;27;20078;-65
2023/05/21 08:28:36;;;;;;;6.32;4.70;;;17.50;99.90;;;;;;5153907;27;20127;-64
2023/05/21 08:31:02;;;;;;;8.77;4.40;;;17.60;99.90;;;;;;5135135;27;20087;-64
2023/05/21 08:33:28;;;;;;;7.97;4.70;;;17.60;99.90;;;;;;5154592;27;20043;-65
2023/05/21 08:35:53;;;;;;;7.45;4.75;;;17.80;99.90;;;;;;5154231;27;20511;-64
2023/05/21 08:38:19;;;;;;;5.55;3.92;;;18.50;99.90;;;;;;5136251;27;20075;-64
2023/05/21 08:40:48;;;;;;;6.65;4.18;;;18.10;99.90;;;;;;5154082;27;20045;-65
2023/05/21 08:43:15;;;;;;;9.55;4.63;;;18.20;99.90;;;;;;5135389;27;20078;-65
2023/05/21 08:45:44;;;;;;;5.03;3.47;;;18.10;99.90;;;;;;5153900;27;20046;-64
2023/05/21 08:48:11;;;;;;;6.38;4.43;;;18.20;99.90;;;;;;5135568;27;20099;-64
2023/05/21 08:50:37;;;;;;;8.18;4.25;;;18.40;99.90;;;;;;5153919;27;20535;-65
2023/05/21 08:53:03;;;;;;;9.57;4.00;;;18.60;99.90;;;;;;5153830;27;20046;-65
2023/05/21 08:55:31;;;;;;;8.50;4.65;;;18.60;99.90;;;;;;5154180;27;20045;-64
2023/05/21 08:57:57;;;;;;;8.85;4.70;;;18.40;99.90;;;;;;5135535;27;20054;-67
2023/05/21 09:00:23;;;;;;;6.88;4.20;;;18.70;99.90;;;;;;5154777;27;20118;-65
2023/05/21 09:02:53;;;;;;;8.02;3.95;;;18.80;99.90;;;;;;5158075;27;20047;-64
2023/05/21 09:05:19;;;;;;;6.05;3.88;;;18.70;99.90;;;;;;5140094;27;20123;-65
2023/05/21 09:08:04;;;;;;;6.72;4.32;;;19.00;99.90;;;;;;5139490;27;20046;-65
2023/05/21 09:10:38;;;;;;;7.10;4.35;;;19.50;99.90;;;;;;5139128;27;20042;-65
2023/05/21 09:13:06;;;;;;;7.38;3.63;;;19.40;99.90;;;;;;5157513;27;20038;-64
2023/05/21 09:15:32;;;;;;;7.82;4.80;;;19.30;99.90;;;;;;5157885;27;20507;-65
2023/05/21 09:17:58;;;;;;;8.07;3.95;;;19.20;99.90;;;;;;5157810;27;20051;-65
2023/05/21 09:20:25;;;;;;;6.40;4.45;;;19.00;99.90;;;;;;5157621;27;20050;-64
2023/05/21 09:22:51;;;;;;;7.30;4.97;;;19.30;99.90;;;;;;5157310;27;20123;-64
2023/05/21 09:25:22;;;;;;;6.22;4.97;;;19.00;99.90;;;;;;5138640;27;20043;-66
2023/05/21 09:27:48;;;;;;;7.10;4.85;;;19.10;99.90;;;;;;5157200;27;20054;-64
2023/05/21 09:30:17;;;;;;;8.23;4.80;;;19.10;99.90;;;;;;5157060;27;20050;-65
2023/05/21 09:32:44;;;;;;;6.55;4.15;;;18.90;99.90;;;;;;5139197;27;20058;-65
2023/05/21 09:35:12;;;;;;;4.32;3.78;;;18.70;99.90;;;;;;5122327;27;20057;-64
2023/05/21 09:37:42;;;;;;;8.48;5.38;;;18.70;99.90;;;;;;5156921;27;20498;-66
2023/05/21 09:40:15;;;;;;;6.78;4.30;;;18.80;99.90;;;;;;5157292;27;20039;-66
2023/05/21 09:42:47;;;;;;;10.82;5.47;;;19.00;99.90;;;;;;5157052;27;20435;-67
2023/05/21 09:45:21;;;;;;;8.48;4.72;;;19.10;99.90;;;;;;5157056;27;20123;-65
2023/05/21 09:47:48;;;;;;;6.05;3.78;;;19.10;99.90;;;;;;5157089;27;20051;-65
2023/05/21 09:50:22;;;;;;;5.60;4.53;;;19.30;99.90;;;;;;5138659;27;20058;-66
2023/05/21 09:52:51;;;;;;;5.65;3.78;;;19.00;99.90;;;;;;5156598;27;20054;-66
2023/05/21 09:55:20;;;;;;;8.02;4.45;;;19.00;99.90;;;;;;5157140;27;20035;-65
2023/05/21 09:57:47;;;;;;;6.80;4.05;;;18.90;99.90;;;;;;5156979;27;20072;-65
2023/05/21 10:00:24;;;;;;;5.93;4.30;;;18.90;99.90;;;;;;5156582;27;20061;-65
2023/05/21 10:02:54;;;;;;;6.25;3.97;;;19.00;99.90;;;;;;5156846;27;20103;-65
2023/05/21 10:05:22;;;;;;;6.68;4.57;;;19.30;99.90;;;;;;5156396;27;20090;-67
2023/05/21 10:07:53;;;;;;;7.28;3.65;;;19.40;99.90;;;;;;5156305;27;20050;-65
2023/05/21 10:10:21;;;;;;;8.18;5.28;;;19.40;99.90;;;;;;5156284;27;20039;-66
2023/05/21 10:12:52;;;;;;;7.05;4.10;;;19.50;99.90;;;;;;5155430;27;20050;-64
2023/05/21 10:15:22;;;;;;;10.02;3.95;;;19.50;99.90;;;;;;5156740;27;20046;-65
2023/05/21 10:17:48;;;;;;;5.03;3.97;;;19.40;99.90;;;;;;5156278;27;20047;-65
2023/05/21 10:20:16;;;;;;;5.00;3.70;;;19.60;99.90;;;;;;5137960;27;20122;-65
2023/05/21 10:22:43;;;;;;;5.13;4.15;;;19.80;99.90;;;;;;5156029;27;20053;-65
2023/05/21 10:25:09;;;;;;;7.93;4.30;;;19.80;99.90;;;;;;5156397;27;20053;-66
2023/05/21 10:27:38;;;;;;;5.53;4.15;;;19.90;99.90;;;;;;5155690;27;20074;-64
2023/05/21 10:30:05;;;;;;;4.38;3.53;;;20.00;99.90;;;;;;5155854;27;20564;-65
2023/05/21 10:32:32;;;;;;;8.60;4.13;;;20.60;99.90;;;;;;5155918;27;20122;-64
2023/05/21 10:34:58;;;;;;;5.15;3.97;;;20.60;99.90;;;;;;5137675;27;20093;-64
2023/05/21 10:37:26;;;;;;;9.13;3.90;;;20.80;99.90;;;;;;5156299;27;20141;-65
2023/05/21 10:39:52;;;;;;;4.80;4.13;;;20.90;99.90;;;;;;5155760;27;20109;-64
2023/05/21 10:42:30;;;;;;;5.90;4.32;;;21.10;99.90;;;;;;5137265;27;20039;-66
2023/05/21 10:45:14;;;;;;;6.20;4.00;;;21.20;99.90;;;;;;5155553;27;20042;-65
2023/05/21 10:47:58;;;;;;;7.45;4.85;;;21.40;99.90;;;;;;5156047;27;20042;-65
2023/05/21 10:50:27;;;;;;;18.27;6.05;;;21.30;99.90;;;;;;5155288;27;20486;-67
2023/05/21 10:53:27;;;;;;;8.23;4.35;;;20.90;99.90;;;;;;5155410;27;20047;-65
2023/05/21 10:56:45;;;;;;;11.07;4.35;;;20.80;99.90;;;;;;5104253;27;20043;-66
2023/05/21 10:59:41;;;;;;;6.13;4.25;;;21.00;99.90;;;;;;5149506;27;20054;-65
2023/05/21 11:02:10;;;;;;;5.25;4.63;;;20.90;99.90;;;;;;5099487;27;20065;-65
2023/05/21 11:04:38;;;;;;;11.15;5.03;;;20.90;99.90;;;;;;5155213;27;20043;-65
2023/05/21 11:07:04;;;;;;;7.07;4.68;;;20.50;99.90;;;;;;5155176;27;20501;-64
2023/05/21 11:09:30;;;;;;;6.68;4.65;;;20.60;99.90;;;;;;5155226;27;20352;-66
2023/05/21 11:11:57;;;;;;;7.03;5.10;;;20.70;99.90;;;;;;5155505;27;20051;-65
2023/05/21 11:14:41;;;;;;;5.68;4.10;;;20.20;99.90;;;;;;5155192;27;20065;-65
2023/05/21 11:17:12;;;;;;;7.75;4.45;;;20.40;99.90;;;;;;5155019;27;20051;-65
2023/05/21 11:19:50;;;;;;;8.85;4.47;;;20.40;99.90;;;;;;5155555;27;20077;-65
2023/05/21 11:22:26;;;;;;;8.93;5.05;;;20.60;99.90;;;;;;5155271;27;20058;-65
2023/05/21 11:24:53;;;;;;;8.27;4.95;;;20.70;99.90;;;;;;5154378;27;20078;-65
2023/05/21 11:27:32;;;;;;;7.18;5.22;;;20.70;99.90;;;;;;5154788;27;20050;-65
2023/05/21 11:29:58;;;;;;;5.90;4.82;;;20.80;99.90;;;;;;5154449;27;20065;-64
2023/05/21 11:32:24;;;;;;;6.28;5.00;;;20.60;99.90;;;;;;5154680;27;20126;-65
2023/05/21 11:34:50;;;;;;;6.43;5.10;;;20.60;99.90;;;;;;5136206;27;20484;-64
2023/05/21 11:37:39;;;;;;;7.28;5.00;;;20.70;99.90;;;;;;5136436;27;20051;-66
2023/05/21 11:40:24;;;;;;;8.10;5.28;;;21.00;99.90;;;;;;5153973;27;20046;-64
2023/05/21 11:42:52;;;;;;;7.28;5.72;;;21.00;99.90;;;;;;5119446;27;20046;-64
2023/05/21 11:45:20;;;;;;;9.63;4.82;;;20.80;99.90;;;;;;5154405;27;20045;-66
2023/05/21 11:47:47;;;;;;;8.50;5.85;;;20.70;99.90;;;;;;5154046;27;20479;-65
2023/05/21 11:50:14;;;;;;;9.25;5.90;;;20.70;99.90;;;;;;5119141;27;20047;-65
2023/05/21 11:52:43;;;;;;;9.57;6.40;;;20.70;99.90;;;;;;5154426;27;20046;-65
2023/05/21 11:55:10;;;;;;;6.93;5.72;;;20.30;99.90;;;;;;5154265;27;20035;-65
2023/05/21 11:57:36;;;;;;;8.95;7.00;;;20.40;99.90;;;;;;5154342;27;20054;-64
2023/05/21 12:00:12;;;;;;;7.47;6.18;;;20.40;99.90;;;;;;5119095;27;20046;-65
2023/05/21 12:02:42;;;;;;;9.15;7.03;;;20.50;99.90;;;;;;5136294;27;20129;-66
2023/05/21 12:05:09;;;;;;;9.98;5.90;;;20.20;99.90;;;;;;5135795;27;20042;-64
2023/05/21 12:07:34;;;;;;;9.48;6.45;;;20.40;99.90;;;;;;5153996;27;20043;-65
2023/05/21 12:10:00;;;;;;;13.32;7.80;;;20.60;99.90;;;;;;5154220;27;20050;-65
2023/05/21 12:12:26;;;;;;;10.35;6.85;;;20.40;99.90;;;;;;5154143;27;20042;-65
2023/05/21 12:14:54;;;;;;;10.48;6.38;;;20.50;99.90;;;;;;5154233;27;20042;-66
2023/05/21 12:17:24;;;;;;;13.43;7.38;;;20.50;99.90;;;;;;5154479;27;20451;-65
2023/05/21 12:19:54;;;;;;;8.40;7.03;;;20.50;99.90;;;;;;5135944;27;20042;-64
2023/05/21 12:22:20;;;;;;;11.77;7.20;;;20.40;99.90;;;;;;5136216;27;20122;-65
2023/05/21 12:24:47;;;;;;;10.68;7.63;;;20.30;99.90;;;;;;5153967;27;20038;-65
2023/05/21 12:27:15;;;;;;;13.32;8.60;;;20.50;99.90;;;;;;5154122;27;20050;-65
2023/05/21 12:29:47;;;;;;;11.88;8.02;;;20.40;99.90;;;;;;5135728;27;20062;-65
2023/05/21 12:32:14;;;;;;;9.70;8.60;;;20.50;99.90;;;;;;5153934;27;20055;-65
2023/05/21 12:34:51;;;;;;;8.43;7.50;;;20.80;99.90;;;;;;5154435;27;20070;-65
2023/05/21 12:37:35;;;;;;;9.30;7.38;;;20.90;99.90;;;;;;5139376;27;20129;-65
2023/05/21 12:40:10;;;;;;;10.07;8.30;;;21.10;99.90;;;;;;5158193;27;20046;-65
2023/05/21 12:42:37;;;;;;;12.52;8.77;;;21.10;99.90;;;;;;5158155;27;20046;-64
2023/05/21 12:45:07;;;;;;;16.42;9.40;;;21.10;99.90;;;;;;5139435;27;20092;-65
2023/05/21 12:47:33;;;;;;;10.35;9.25;;;20.90;99.90;;;;;;5139586;27;20042;-66
2023/05/21 12:50:03;;;;;;;15.13;10.13;;;21.00;99.90;;;;;;5139688;27;20051;-65